createdAt,value
2018-06-13T00:01:43.538Z,18.43
2018-06-13T00:04:12.143Z,18.44
2018-06-13T00:06:40.807Z,18.42
2018-06-13T00:09:09.768Z,18.36
2018-06-13T00:11:38.282Z,18.27
2018-06-13T00:14:06.805Z,18.27
2018-06-13T00:16:35.333Z,18.21
2018-06-13T00:19:03.853Z,18.26
2018-06-13T00:21:32.508Z,18.33
2018-06-13T00:24:01.017Z,18.40
2018-06-13T00:26:29.568Z,18.32
2018-06-13T00:28:58.221Z,17.86
2018-06-13T00:31:26.779Z,18.34
2018-06-13T00:33:55.357Z,18.35
2018-06-13T00:36:23.881Z,18.44
2018-06-13T00:38:52.420Z,18.33
2018-06-13T00:41:20.956Z,18.39
2018-06-13T00:43:49.573Z,18.30
2018-06-13T00:46:18.109Z,18.32
2018-06-13T00:48:46.705Z,18.39
2018-06-13T00:51:15.376Z,18.40
2018-06-13T00:53:44.015Z,18.36
2018-06-13T00:56:23.794Z,18.28
2018-06-13T00:58:52.314Z,18.24
2018-06-13T01:01:20.918Z,18.16
2018-06-13T01:03:49.457Z,18.19
2018-06-13T01:06:18.038Z,18.20
2018-06-13T01:08:46.612Z,18.16
2018-06-13T01:11:15.182Z,18.16
2018-06-13T01:13:43.747Z,18.27
2018-06-13T01:16:12.268Z,18.26
2018-06-13T01:18:42.241Z,18.20
2018-06-13T01:21:10.794Z,18.27
2018-06-13T01:23:39.944Z,18.34
2018-06-13T01:26:08.633Z,18.34
2018-06-13T01:28:37.281Z,18.35
2018-06-13T01:31:06.117Z,18.78
2018-06-13T01:33:35.006Z,18.79
2018-06-13T01:36:03.669Z,18.75
2018-06-13T01:38:32.725Z,18.79
2018-06-13T01:41:01.278Z,18.47
2018-06-13T01:43:30.584Z,18.39
2018-06-13T01:45:59.220Z,18.32
2018-06-13T01:48:27.881Z,18.38
2018-06-13T01:50:58.852Z,18.34
2018-06-13T01:53:30.098Z,18.27
2018-06-13T01:56:00.050Z,18.16
2018-06-13T01:58:29.126Z,18.18
2018-06-13T02:00:57.922Z,18.47
2018-06-13T02:03:27.361Z,18.42
2018-06-13T02:05:56.292Z,18.36
2018-06-13T02:08:25.278Z,18.16
2018-06-13T02:10:54.758Z,18.11
2018-06-13T02:13:23.503Z,18.11
2018-06-13T02:15:52.770Z,18.14
2018-06-13T02:18:21.549Z,18.11
2018-06-13T02:20:50.324Z,18.15
2018-06-13T02:23:19.661Z,18.10
2018-06-13T02:25:48.420Z,18.09
2018-06-13T02:28:17.216Z,18.11
2018-06-13T02:30:46.156Z,18.10
2018-06-13T02:33:14.992Z,18.11
2018-06-13T02:35:43.697Z,18.09
2018-06-13T02:38:12.710Z,18.00
2018-06-13T02:40:41.601Z,13.12
2018-06-13T02:43:10.974Z,18.08
2018-06-13T02:45:39.637Z,17.94
2018-06-13T02:48:08.394Z,17.99
2018-06-13T02:50:37.061Z,17.93
2018-06-13T02:53:06.657Z,17.93
2018-06-13T02:55:35.825Z,17.92
2018-06-13T02:58:04.464Z,17.92
2018-06-13T03:00:33.322Z,17.85
2018-06-13T03:03:02.049Z,17.82
2018-06-13T03:05:33.016Z,17.70
2018-06-13T03:08:01.779Z,17.63
2018-06-13T03:10:30.745Z,17.56
2018-06-13T03:12:59.782Z,17.49
2018-06-13T03:15:28.736Z,17.47
2018-06-13T03:17:57.423Z,17.36
2018-06-13T03:20:26.505Z,17.32
2018-06-13T03:22:55.308Z,17.20
2018-06-13T03:25:24.656Z,17.17
2018-06-13T03:27:53.709Z,17.28
2018-06-13T03:30:23.522Z,17.36
2018-06-13T03:32:52.354Z,7.57
2018-06-13T03:35:21.151Z,17.31
2018-06-13T03:37:49.855Z,17.26
2018-06-13T03:40:18.542Z,17.21
2018-06-13T03:42:47.196Z,17.09
2018-06-13T03:45:16.129Z,17.14
2018-06-13T03:47:45.176Z,16.94
2018-06-13T03:50:13.838Z,17.04
2018-06-13T03:52:43.648Z,16.97
2018-06-13T03:55:12.312Z,16.87
2018-06-13T03:57:42.677Z,16.88
2018-06-13T04:00:12.157Z,16.80
2018-06-13T04:02:40.809Z,16.89
2018-06-13T04:05:09.587Z,16.93
2018-06-13T04:07:38.364Z,17.07
2018-06-13T04:10:07.061Z,17.04
2018-06-13T04:12:35.766Z,16.92
2018-06-13T04:15:04.819Z,16.84
2018-06-13T04:17:33.431Z,16.76
2018-06-13T04:20:01.989Z,10.43
2018-06-13T04:22:30.860Z,16.74
2018-06-13T04:24:59.480Z,16.68
2018-06-13T04:27:28.209Z,16.68
2018-06-13T04:29:57.015Z,16.69
2018-06-13T04:32:25.742Z,16.64
2018-06-13T04:34:54.380Z,16.60
2018-06-13T04:37:23.075Z,16.49
2018-06-13T04:39:51.721Z,16.50
2018-06-13T04:42:20.471Z,16.47
2018-06-13T04:44:50.116Z,16.46
2018-06-13T04:47:19.060Z,16.30
2018-06-13T04:49:47.760Z,16.24
2018-06-13T04:52:16.369Z,16.29
2018-06-13T04:54:45.209Z,16.17
2018-06-13T04:57:14.155Z,16.20
2018-06-13T04:59:42.900Z,16.20
2018-06-13T05:02:11.561Z,16.25
2018-06-13T05:04:40.356Z,16.28
2018-06-13T05:07:09.364Z,16.12
2018-06-13T05:09:38.421Z,16.01
2018-06-13T05:12:07.113Z,16.19
2018-06-13T05:14:35.764Z,16.16
2018-06-13T05:17:04.593Z,16.24
2018-06-13T05:19:33.446Z,16.20
2018-06-13T05:22:02.457Z,16.14
2018-06-13T05:24:31.364Z,16.03
2018-06-13T05:27:00.088Z,16.09
2018-06-13T05:29:28.937Z,16.14
2018-06-13T05:31:57.860Z,16.19
2018-06-13T05:34:26.772Z,16.24
2018-06-13T05:36:56.458Z,16.29
2018-06-13T05:39:26.026Z,16.32
2018-06-13T05:41:54.916Z,16.30
2018-06-13T05:44:23.632Z,16.31
2018-06-13T05:46:52.305Z,16.26
2018-06-13T05:49:21.426Z,16.32
2018-06-13T05:51:49.966Z,16.50
2018-06-13T05:54:18.517Z,16.57
2018-06-13T05:56:47.259Z,16.59
2018-06-13T05:59:16.622Z,16.47
2018-06-13T06:01:45.730Z,16.46
2018-06-13T06:04:14.518Z,16.43
2018-06-13T06:06:44.440Z,16.42
2018-06-13T06:09:13.786Z,16.34
2018-06-13T06:11:43.287Z,16.21
2018-06-13T06:14:13.301Z,16.10
2018-06-13T06:16:42.354Z,16.05
2018-06-13T06:19:11.626Z,15.93
2018-06-13T06:21:40.750Z,15.84
2018-06-13T06:24:09.780Z,15.72
2018-06-13T06:26:38.673Z,15.82
2018-06-13T06:29:07.792Z,15.70
2018-06-13T06:31:37.364Z,15.65
2018-06-13T06:34:06.425Z,15.63
2018-06-13T06:36:35.314Z,15.68
2018-06-13T06:39:04.670Z,15.73
2018-06-13T06:41:33.621Z,15.35
2018-06-13T06:44:02.773Z,15.68
2018-06-13T06:46:32.082Z,15.42
2018-06-13T06:49:01.239Z,15.41
2018-06-13T06:51:31.105Z,15.45
2018-06-13T06:53:59.880Z,15.48
2018-06-13T06:56:28.934Z,15.51
2018-06-13T06:58:58.189Z,15.55
2018-06-13T07:01:27.242Z,15.61
2018-06-13T07:03:56.899Z,15.47
2018-06-13T07:06:25.934Z,15.48
2018-06-13T07:08:54.970Z,15.52
2018-06-13T07:11:23.963Z,15.61
2018-06-13T07:13:52.985Z,15.64
2018-06-13T07:16:22.273Z,15.71
2018-06-13T07:18:51.162Z,15.79
2018-06-13T07:21:20.394Z,15.76
2018-06-13T07:23:49.991Z,15.75
2018-06-13T07:26:18.905Z,15.69
2018-06-13T07:28:48.411Z,15.66
2018-06-13T07:31:17.888Z,15.65
2018-06-13T07:33:47.039Z,15.43
2018-06-13T07:36:15.953Z,15.46
2018-06-13T07:38:45.343Z,15.56
2018-06-13T07:41:14.520Z,15.60
2018-06-13T07:43:43.776Z,15.59
2018-06-13T07:46:12.748Z,15.69
2018-06-13T07:48:41.866Z,15.75
2018-06-13T07:51:10.565Z,15.87
2018-06-13T07:53:39.545Z,15.83
2018-06-13T07:56:14.793Z,15.79
2018-06-13T07:58:43.875Z,15.95
2018-06-13T08:01:12.657Z,16.06
2018-06-13T08:03:41.739Z,16.12
2018-06-13T08:06:11.063Z,16.27
2018-06-13T08:08:40.115Z,16.45
2018-06-13T08:11:09.471Z,16.52
2018-06-13T08:13:38.643Z,16.76
2018-06-13T08:16:07.809Z,16.98
2018-06-13T08:18:37.202Z,17.10
2018-06-13T08:21:06.622Z,17.13
2018-06-13T08:23:35.666Z,17.03
2018-06-13T08:26:04.840Z,16.87
2018-06-13T08:28:33.875Z,16.86
2018-06-13T08:31:03.023Z,16.84
2018-06-13T08:33:32.325Z,16.80
2018-06-13T08:36:01.456Z,16.80
2018-06-13T08:38:30.304Z,16.98
2018-06-13T08:40:59.317Z,16.93
2018-06-13T08:43:29.118Z,17.07
2018-06-13T08:45:58.344Z,16.99
2018-06-13T08:48:27.605Z,16.95
2018-06-13T08:50:56.510Z,16.86
2018-06-13T08:53:25.313Z,17.04
2018-06-13T08:55:54.236Z,17.11
2018-06-13T08:58:23.849Z,17.50
2018-06-13T09:00:52.946Z,17.45
2018-06-13T09:03:22.295Z,17.59
2018-06-13T09:05:51.104Z,18.20
2018-06-13T09:08:20.239Z,18.65
2018-06-13T09:10:49.449Z,19.01
2018-06-13T09:13:18.236Z,18.39
2018-06-13T09:15:47.560Z,18.54
2018-06-13T09:18:16.646Z,18.20
2018-06-13T09:20:46.007Z,18.06
2018-06-13T09:23:14.887Z,18.33
2018-06-13T09:25:44.257Z,18.55
2018-06-13T09:28:13.490Z,18.54
2018-06-13T09:30:42.531Z,18.62
2018-06-13T09:33:11.574Z,18.59
2018-06-13T09:35:40.756Z,18.66
2018-06-13T09:38:09.870Z,18.39
2018-06-13T09:40:39.595Z,18.73
2018-06-13T09:43:09.473Z,18.99
2018-06-13T09:45:38.023Z,19.32
2018-06-13T09:48:07.515Z,19.63
2018-06-13T09:50:36.704Z,19.72
2018-06-13T09:53:05.558Z,19.86
2018-06-13T09:55:34.417Z,19.76
2018-06-13T09:58:03.713Z,19.71
2018-06-13T10:00:37.913Z,19.33
2018-06-13T10:03:07.477Z,19.08
2018-06-13T10:05:36.314Z,18.59
2018-06-13T10:08:05.490Z,18.46
2018-06-13T10:10:34.481Z,18.47
2018-06-13T10:13:03.143Z,18.59
2018-06-13T10:15:32.589Z,18.67
2018-06-13T10:18:02.019Z,18.09
2018-06-13T10:20:30.618Z,17.93
2018-06-13T10:22:59.786Z,18.04
2018-06-13T10:25:29.412Z,17.98
2018-06-13T10:27:58.303Z,18.13
2018-06-13T10:30:27.197Z,18.53
2018-06-13T10:32:55.952Z,18.53
2018-06-13T10:35:25.203Z,18.60
2018-06-13T10:37:55.081Z,18.87
2018-06-13T10:40:23.875Z,18.88
2018-06-13T10:42:52.999Z,18.89
2018-06-13T10:45:21.674Z,18.90
2018-06-13T10:47:51.275Z,18.72
2018-06-13T10:50:19.841Z,18.87
2018-06-13T10:52:49.179Z,18.89
2018-06-13T10:55:18.329Z,19.01
2018-06-13T10:57:48.433Z,19.17
2018-06-13T11:00:17.448Z,19.08
2018-06-13T11:02:46.891Z,19.07
2018-06-13T11:05:16.111Z,19.51
2018-06-13T11:07:45.195Z,19.47
2018-06-13T11:10:13.734Z,19.36
2018-06-13T11:12:42.327Z,19.71
2018-06-13T11:15:11.301Z,20.05
2018-06-13T11:17:40.108Z,19.91
2018-06-13T11:20:09.082Z,20.29
2018-06-13T11:22:38.124Z,19.69
2018-06-13T11:25:07.343Z,20.23
2018-06-13T11:27:36.085Z,20.73
2018-06-13T11:30:05.305Z,21.23
2018-06-13T11:32:33.972Z,21.08
2018-06-13T11:35:06.934Z,20.86
2018-06-13T11:37:36.640Z,20.88
2018-06-13T11:40:05.386Z,20.90
2018-06-13T11:42:34.144Z,21.10
2018-06-13T11:45:02.840Z,21.37
2018-06-13T11:47:31.825Z,21.51
2018-06-13T11:50:00.962Z,21.55
2018-06-13T11:52:29.514Z,22.12
2018-06-13T11:54:58.402Z,23.06
2018-06-13T11:57:27.052Z,23.67
2018-06-13T11:59:56.737Z,23.69
2018-06-13T12:02:25.811Z,23.60
2018-06-13T12:04:55.577Z,23.20
2018-06-13T12:07:24.081Z,21.15
2018-06-13T12:09:53.103Z,20.59
2018-06-13T12:12:22.135Z,20.26
2018-06-13T12:14:51.131Z,19.91
2018-06-13T12:17:20.017Z,19.73
2018-06-13T12:19:49.760Z,19.53
2018-06-13T12:22:18.414Z,19.37
2018-06-13T12:24:47.787Z,19.35
2018-06-13T12:27:16.441Z,19.00
2018-06-13T12:29:45.321Z,18.75
2018-06-13T12:32:14.324Z,18.64
2018-06-13T12:34:43.346Z,18.65
2018-06-13T12:37:12.820Z,18.70
2018-06-13T12:39:41.614Z,18.55
2018-06-13T12:42:10.200Z,18.43
2018-06-13T12:44:38.976Z,18.43
2018-06-13T12:47:07.578Z,18.47
2018-06-13T12:49:36.482Z,18.55
2018-06-13T12:52:06.501Z,18.71
2018-06-13T12:54:35.363Z,18.85
2018-06-13T12:57:04.666Z,18.77
2018-06-13T12:59:33.521Z,18.82
2018-06-13T13:02:03.510Z,18.89
2018-06-13T13:04:32.768Z,19.11
2018-06-13T13:07:01.983Z,19.24
2018-06-13T13:09:30.705Z,19.24
2018-06-13T13:11:59.580Z,19.51
2018-06-13T13:14:28.650Z,19.42
2018-06-13T13:16:57.609Z,19.52
2018-06-13T13:19:26.487Z,19.65
2018-06-13T13:21:55.720Z,19.88
2018-06-13T13:24:25.140Z,20.09
2018-06-13T13:26:53.918Z,19.88
2018-06-13T13:29:23.278Z,19.79
2018-06-13T13:31:51.918Z,19.33
2018-06-13T13:34:20.970Z,19.03
2018-06-13T13:36:50.590Z,18.73
2018-06-13T13:39:23.489Z,18.72
2018-06-13T13:41:52.140Z,18.70
2018-06-13T13:44:21.038Z,18.71
2018-06-13T13:46:50.320Z,18.89
2018-06-13T13:49:19.581Z,18.86
2018-06-13T13:51:48.572Z,18.95
2018-06-13T13:54:17.486Z,19.03
2018-06-13T13:56:46.147Z,18.83
2018-06-13T13:59:16.243Z,18.68
2018-06-13T14:01:45.803Z,18.57
2018-06-13T14:04:14.677Z,18.71
2018-06-13T14:06:44.094Z,18.73
2018-06-13T14:09:14.491Z,18.92
2018-06-13T14:11:43.009Z,18.97
2018-06-13T14:14:11.691Z,18.91
2018-06-13T14:16:41.305Z,18.79
2018-06-13T14:19:10.438Z,18.68
2018-06-13T14:21:40.276Z,18.65
2018-06-13T14:24:08.810Z,18.62
2018-06-13T14:26:38.289Z,18.65
2018-06-13T14:29:07.164Z,18.64
2018-06-13T14:31:36.116Z,18.72
2018-06-13T14:34:05.436Z,18.72
2018-06-13T14:36:34.706Z,18.83
2018-06-13T14:39:04.489Z,18.99
2018-06-13T14:41:33.559Z,18.98
2018-06-13T14:44:02.363Z,19.04
2018-06-13T14:46:31.598Z,18.90
2018-06-13T14:49:00.908Z,19.08
2018-06-13T14:51:29.573Z,19.09
2018-06-13T14:53:59.848Z,19.07
2018-06-13T14:56:31.624Z,18.79
2018-06-13T14:59:01.560Z,18.66
2018-06-13T15:01:31.637Z,18.62
2018-06-13T15:04:00.324Z,18.64
2018-06-13T15:06:28.892Z,18.68
2018-06-13T15:08:58.305Z,18.65
2018-06-13T15:11:27.848Z,18.49
2018-06-13T15:13:56.939Z,18.66
2018-06-13T15:16:26.106Z,18.56
2018-06-13T15:18:56.074Z,18.50
2018-06-13T15:21:25.316Z,18.45
2018-06-13T15:23:53.829Z,18.56
2018-06-13T15:26:22.805Z,18.49
2018-06-13T15:28:52.536Z,18.46
2018-06-13T15:31:21.374Z,18.47
2018-06-13T15:33:51.102Z,18.45
2018-06-13T15:36:19.853Z,18.51
2018-06-13T15:38:49.608Z,18.50
2018-06-13T15:41:18.693Z,18.57
2018-06-13T15:43:47.705Z,18.48
2018-06-13T15:46:16.736Z,18.62
2018-06-13T15:48:45.413Z,18.72
2018-06-13T15:51:14.692Z,18.62
2018-06-13T15:53:43.216Z,18.54
2018-06-13T15:56:12.761Z,18.44
2018-06-13T15:58:41.507Z,18.32
2018-06-13T16:01:10.091Z,18.25
2018-06-13T16:03:38.744Z,18.28
2018-06-13T16:06:07.421Z,18.42
2018-06-13T16:08:37.762Z,18.39
2018-06-13T16:11:06.662Z,18.35
2018-06-13T16:13:42.984Z,18.34
2018-06-13T16:16:12.244Z,18.32
2018-06-13T16:18:41.915Z,18.24
2018-06-13T16:21:11.306Z,17.97
2018-06-13T16:23:40.635Z,17.96
2018-06-13T16:26:10.250Z,17.96
2018-06-13T16:28:39.192Z,17.94
2018-06-13T16:31:08.938Z,17.81
2018-06-13T16:33:37.940Z,17.70
2018-06-13T16:36:06.899Z,17.64
2018-06-13T16:38:37.045Z,17.68
2018-06-13T16:41:06.705Z,17.64
2018-06-13T16:43:35.864Z,17.45
2018-06-13T16:46:05.282Z,17.63
2018-06-13T16:48:35.215Z,17.57
2018-06-13T16:51:15.291Z,17.42
2018-06-13T16:54:04.553Z,17.36
2018-06-13T16:56:35.150Z,17.32
2018-06-13T16:59:04.142Z,17.24
2018-06-13T17:01:33.828Z,17.18
2018-06-13T17:04:03.992Z,17.23
2018-06-13T17:06:33.910Z,17.19
2018-06-13T17:09:03.413Z,17.21
2018-06-13T17:11:33.344Z,17.19
2018-06-13T17:14:03.191Z,17.16
2018-06-13T17:16:32.794Z,17.11
2018-06-13T17:19:02.571Z,17.01
2018-06-13T17:21:32.088Z,16.98
2018-06-13T17:24:02.378Z,17.00
2018-06-13T17:26:33.089Z,16.94
2018-06-13T17:29:02.507Z,16.84
2018-06-13T17:31:32.109Z,16.75
2018-06-13T17:34:01.648Z,16.66
2018-06-13T17:36:31.409Z,16.67
2018-06-13T17:39:01.453Z,16.75
2018-06-13T17:41:30.492Z,16.65
2018-06-13T17:43:59.477Z,16.59
2018-06-13T17:46:28.404Z,16.63
2018-06-13T17:48:58.801Z,16.61
2018-06-13T17:51:29.656Z,16.61
2018-06-13T17:53:59.686Z,16.57
2018-06-13T17:56:30.807Z,15.42
2018-06-13T17:59:01.023Z,16.46
2018-06-13T18:01:31.424Z,16.46
2018-06-13T18:04:01.847Z,16.45
2018-06-13T18:06:34.115Z,16.38
2018-06-13T18:09:04.407Z,16.37
2018-06-13T18:11:34.822Z,16.29
2018-06-13T18:14:04.847Z,16.24
2018-06-13T18:16:34.592Z,16.26
2018-06-13T18:19:04.494Z,11.40
2018-06-13T18:21:34.543Z,16.19
2018-06-13T18:24:04.808Z,16.16
2018-06-13T18:26:35.128Z,16.16
2018-06-13T18:29:06.688Z,16.11
2018-06-13T18:31:37.316Z,16.10
2018-06-13T18:34:06.836Z,16.02
2018-06-13T18:36:37.348Z,16.00
2018-06-13T18:39:11.284Z,16.04
2018-06-13T18:41:41.947Z,15.97
2018-06-13T18:44:12.671Z,15.95
2018-06-13T18:46:42.176Z,15.90
2018-06-13T18:49:11.948Z,15.87
2018-06-13T18:51:41.678Z,16.03
2018-06-13T18:54:11.309Z,16.02
2018-06-13T18:56:40.947Z,15.97
2018-06-13T18:59:11.573Z,15.90
2018-06-13T19:01:42.677Z,15.88
2018-06-13T19:04:12.671Z,15.90
2018-06-13T19:06:43.189Z,15.94
2018-06-13T19:09:13.073Z,15.93
2018-06-13T19:11:42.958Z,15.90
2018-06-13T19:14:12.472Z,15.81
2018-06-13T19:16:41.992Z,15.75
2018-06-13T19:19:11.808Z,15.76
2018-06-13T19:21:41.400Z,15.80
2018-06-13T19:24:11.123Z,15.67
2018-06-13T19:26:40.427Z,15.64
2018-06-13T19:29:10.283Z,15.69
2018-06-13T19:31:40.529Z,15.62
2018-06-13T19:34:10.374Z,15.63
2018-06-13T19:36:39.673Z,15.77
2018-06-13T19:39:10.437Z,15.69
2018-06-13T19:41:39.422Z,15.72
2018-06-13T19:44:08.441Z,15.65
2018-06-13T19:46:37.413Z,15.64
2018-06-13T19:49:06.445Z,15.67
2018-06-13T19:51:35.456Z,15.64
2018-06-13T19:54:09.808Z,15.62
2018-06-13T19:56:38.709Z,15.58
2018-06-13T19:59:08.349Z,15.57
2018-06-13T20:01:38.064Z,15.75
2018-06-13T20:04:11.983Z,15.79
2018-06-13T20:06:41.248Z,15.78
2018-06-13T20:09:12.454Z,15.73
2018-06-13T20:11:42.226Z,15.72
2018-06-13T20:14:16.345Z,15.75
2018-06-13T20:16:53.435Z,15.76
2018-06-13T20:19:27.352Z,15.70
2018-06-13T20:21:57.589Z,15.76
2018-06-13T20:24:29.823Z,15.79
2018-06-13T20:27:04.521Z,15.77
2018-06-13T20:29:39.643Z,15.70
2018-06-13T20:32:09.009Z,15.73
2018-06-13T20:34:38.756Z,15.72
2018-06-13T20:37:08.252Z,15.72
2018-06-13T20:39:37.737Z,15.69
2018-06-13T20:42:07.408Z,15.68
2018-06-13T20:44:37.030Z,15.78
2018-06-13T20:47:06.903Z,15.68
2018-06-13T20:49:36.235Z,15.69
2018-06-13T20:52:05.597Z,15.67
2018-06-13T20:54:35.228Z,15.63
2018-06-13T20:57:05.509Z,15.55
2018-06-13T20:59:34.894Z,15.51
2018-06-13T21:02:04.548Z,15.52
2018-06-13T21:04:33.484Z,15.49
2018-06-13T21:07:02.244Z,15.48
2018-06-13T21:09:32.510Z,15.45
2018-06-13T21:12:01.560Z,15.46
2018-06-13T21:14:30.986Z,15.42
2018-06-13T21:17:00.856Z,15.41
2018-06-13T21:19:30.605Z,15.38
2018-06-13T21:22:00.339Z,15.36
2018-06-13T21:24:29.820Z,15.30
2018-06-13T21:26:59.082Z,15.30
2018-06-13T21:29:28.047Z,15.34
2018-06-13T21:31:56.941Z,15.32
2018-06-13T21:34:25.865Z,15.30
2018-06-13T21:36:55.085Z,15.29
2018-06-13T21:39:24.320Z,15.44
2018-06-13T21:41:53.520Z,15.33
2018-06-13T21:44:26.787Z,15.48
2018-06-13T21:46:56.593Z,15.25
2018-06-13T21:49:26.063Z,15.24
2018-06-13T21:51:55.031Z,15.27
2018-06-13T21:54:29.037Z,15.28
2018-06-13T21:56:59.612Z,15.28
2018-06-13T21:59:32.786Z,15.29
2018-06-13T22:02:02.709Z,15.31
2018-06-13T22:04:33.377Z,15.23
2018-06-13T22:07:02.200Z,15.27
2018-06-13T22:09:32.336Z,15.24
2018-06-13T22:12:01.478Z,15.26
2018-06-13T22:14:30.793Z,15.20
2018-06-13T22:16:59.341Z,15.19
2018-06-13T22:19:28.882Z,15.19
2018-06-13T22:21:58.026Z,15.14
2018-06-13T22:24:27.347Z,15.14
2018-06-13T22:27:03.471Z,15.22
2018-06-13T22:29:32.828Z,15.19
2018-06-13T22:32:10.323Z,15.16
2018-06-13T22:34:42.379Z,15.15
2018-06-13T22:37:16.477Z,15.19
2018-06-13T22:39:47.701Z,15.25
2018-06-13T22:42:24.046Z,15.26
2018-06-13T22:44:53.652Z,15.25
2018-06-13T22:47:24.473Z,15.23
2018-06-13T22:49:58.201Z,15.24
2018-06-13T22:52:27.320Z,15.23
2018-06-13T22:54:57.187Z,15.19
2018-06-13T22:57:26.642Z,15.17
2018-06-13T22:59:55.494Z,15.21
2018-06-13T23:02:24.081Z,15.17
2018-06-13T23:04:53.569Z,15.14
2018-06-13T23:07:22.800Z,15.09
2018-06-13T23:09:51.819Z,15.07
2018-06-13T23:12:22.757Z,15.09
2018-06-13T23:14:51.270Z,15.07
2018-06-13T23:17:21.808Z,15.04
2018-06-13T23:19:51.137Z,15.09
2018-06-13T23:22:20.412Z,15.05
2018-06-13T23:24:50.957Z,15.02
2018-06-13T23:27:22.250Z,15.02
2018-06-13T23:29:50.992Z,15.01
2018-06-13T23:32:20.040Z,14.98
2018-06-13T23:34:49.292Z,15.00
2018-06-13T23:37:19.246Z,14.89
2018-06-13T23:39:51.559Z,14.84
2018-06-13T23:42:20.440Z,14.87
2018-06-13T23:44:50.099Z,14.95
2018-06-13T23:47:19.330Z,14.99
2018-06-13T23:49:48.824Z,14.99
2018-06-13T23:52:18.239Z,14.98
2018-06-13T23:54:47.221Z,15.02
2018-06-13T23:57:16.449Z,15.03
2018-06-13T23:59:45.933Z,14.99
